createdAt,value
2023-07-18T00:00:26.705Z,22.65
2023-07-18T00:03:29.861Z,22.73
2023-07-18T00:06:31.507Z,22.79
2023-07-18T00:09:33.427Z,22.74
2023-07-18T00:12:36.108Z,22.66
2023-07-18T00:15:37.880Z,22.54
2023-07-18T00:18:39.553Z,22.56
2023-07-18T00:21:42.061Z,22.39
2023-07-18T00:24:43.746Z,22.27
2023-07-18T00:27:45.680Z,22.09
2023-07-18T00:30:48.472Z,21.99
2023-07-18T00:33:50.123Z,21.81
2023-07-18T00:36:56.360Z,21.80
2023-07-18T00:39:58.581Z,21.89
2023-07-18T00:43:00.221Z,21.77
2023-07-18T00:46:04.736Z,21.66
2023-07-18T00:49:06.762Z,21.59
2023-07-18T00:52:08.644Z,21.61
2023-07-18T00:55:11.490Z,21.59
2023-07-18T00:58:13.769Z,21.58
2023-07-18T01:01:15.702Z,21.47
2023-07-18T01:04:19.597Z,21.42
2023-07-18T01:07:21.583Z,21.43
2023-07-18T01:10:25.858Z,21.54
2023-07-18T01:13:27.749Z,21.58
2023-07-18T01:16:29.386Z,21.82
2023-07-18T01:19:31.890Z,21.82
2023-07-18T01:22:33.556Z,21.88
2023-07-18T01:25:36.398Z,22.09
2023-07-18T01:28:38.302Z,22.09
2023-07-18T01:31:40.016Z,22.25
2023-07-18T01:34:41.917Z,22.27
2023-07-18T01:37:47.625Z,22.12
2023-07-18T01:40:49.402Z,21.92
2023-07-18T01:43:51.054Z,21.86
2023-07-18T01:46:52.736Z,21.69
2023-07-18T01:49:54.368Z,21.65
2023-07-18T01:52:56.293Z,21.64
2023-07-18T01:55:59.611Z,21.53
2023-07-18T01:59:01.217Z,21.56
2023-07-18T02:02:07.553Z,21.64
2023-07-18T02:05:09.535Z,21.73
2023-07-18T02:08:11.185Z,21.66
2023-07-18T02:11:12.848Z,21.81
2023-07-18T02:14:14.509Z,21.83
2023-07-18T02:17:16.212Z,21.82
2023-07-18T02:20:18.123Z,21.98
2023-07-18T02:23:19.822Z,21.99
2023-07-18T02:26:21.451Z,22.00
2023-07-18T02:29:23.179Z,22.01
2023-07-18T02:32:24.797Z,21.91
2023-07-18T02:35:26.457Z,21.95
2023-07-18T02:38:28.074Z,21.92
2023-07-18T02:41:29.711Z,21.96
2023-07-18T02:44:31.308Z,21.72
2023-07-18T02:47:32.966Z,21.48
2023-07-18T02:50:35.801Z,21.55
2023-07-18T02:53:37.637Z,21.68
2023-07-18T02:56:39.277Z,21.86
2023-07-18T02:59:40.935Z,21.97
2023-07-18T03:02:43.291Z,22.11
2023-07-18T03:05:44.998Z,22.18
2023-07-18T03:08:46.632Z,22.28
2023-07-18T03:11:48.629Z,22.39
2023-07-18T03:14:50.608Z,22.30
2023-07-18T03:17:52.300Z,22.32
2023-07-18T03:20:53.979Z,22.24
2023-07-18T03:23:56.028Z,22.29
2023-07-18T03:26:57.711Z,22.33
2023-07-18T03:29:59.337Z,22.28
2023-07-18T03:33:01.123Z,22.38
2023-07-18T03:36:03.530Z,22.42
2023-07-18T03:39:05.330Z,22.44
2023-07-18T03:42:07.500Z,22.37
2023-07-18T03:45:11.596Z,22.38
2023-07-18T03:48:13.491Z,22.49
2023-07-18T03:51:15.316Z,22.57
2023-07-18T03:54:18.146Z,22.63
2023-07-18T03:57:20.116Z,22.67
2023-07-18T04:00:22.016Z,22.64
2023-07-18T04:03:23.653Z,22.73
2023-07-18T04:06:25.377Z,22.78
2023-07-18T04:09:27.004Z,22.88
2023-07-18T04:12:28.587Z,22.91
2023-07-18T04:15:30.229Z,22.97
2023-07-18T04:18:31.950Z,23.04
2023-07-18T04:21:34.596Z,23.12
2023-07-18T04:24:36.423Z,23.21
2023-07-18T04:27:38.022Z,23.29
2023-07-18T04:30:39.851Z,23.35
2023-07-18T04:33:41.739Z,23.43
2023-07-18T04:36:44.042Z,23.55
2023-07-18T04:39:45.726Z,23.52
2023-07-18T04:42:47.359Z,23.60
2023-07-18T04:45:49.574Z,23.84
2023-07-18T04:48:51.202Z,24.06
2023-07-18T04:51:53.267Z,24.31
2023-07-18T04:54:55.322Z,24.35
2023-07-18T04:57:56.897Z,24.56
2023-07-18T05:01:00.634Z,24.45
2023-07-18T05:04:02.517Z,24.67
2023-07-18T05:07:05.053Z,24.63
2023-07-18T05:10:07.535Z,24.50
2023-07-18T05:13:09.691Z,24.50
2023-07-18T05:16:11.359Z,24.61
2023-07-18T05:19:13.136Z,24.78
2023-07-18T05:22:14.741Z,24.98
2023-07-18T05:25:18.285Z,25.24
2023-07-18T05:28:19.888Z,25.48
2023-07-18T05:31:22.330Z,25.32
2023-07-18T05:34:24.443Z,25.27
2023-07-18T05:37:27.120Z,25.34
2023-07-18T05:40:28.735Z,25.79
2023-07-18T05:43:30.324Z,25.88
2023-07-18T05:46:32.106Z,26.21
2023-07-18T05:49:33.848Z,25.97
2023-07-18T05:52:35.597Z,26.00
2023-07-18T05:55:37.915Z,26.03
2023-07-18T05:58:39.524Z,25.93
2023-07-18T06:01:41.209Z,26.19
2023-07-18T06:04:42.860Z,26.37
2023-07-18T06:07:44.499Z,26.61
2023-07-18T06:10:46.124Z,26.58
2023-07-18T06:13:47.804Z,26.72
2023-07-18T06:16:49.576Z,26.96
2023-07-18T06:19:51.367Z,27.06
2023-07-18T06:22:53.733Z,27.22
2023-07-18T06:25:55.428Z,27.22
2023-07-18T06:28:57.044Z,27.19
2023-07-18T06:31:59.203Z,27.48
2023-07-18T06:35:13.060Z,27.77
2023-07-18T06:38:23.178Z,28.24
2023-07-18T06:41:24.839Z,28.70
2023-07-18T06:44:26.836Z,28.48
2023-07-18T06:47:28.662Z,28.21
2023-07-18T06:50:30.868Z,28.30
2023-07-18T06:53:32.506Z,27.98
2023-07-18T06:56:34.112Z,27.82
2023-07-18T06:59:36.315Z,27.56
2023-07-18T07:02:38.014Z,27.25
2023-07-18T07:05:42.531Z,27.67
2023-07-18T07:08:44.210Z,27.79
2023-07-18T07:11:45.829Z,27.53
2023-07-18T07:14:47.535Z,27.29
2023-07-18T07:17:49.175Z,27.49
2023-07-18T07:20:52.250Z,27.82
2023-07-18T07:23:56.124Z,27.93
2023-07-18T07:26:59.547Z,27.53
2023-07-18T07:30:01.185Z,27.88
2023-07-18T07:33:07.246Z,28.43
2023-07-18T07:36:08.994Z,28.70
2023-07-18T07:39:10.661Z,28.69
2023-07-18T07:42:12.252Z,28.70
2023-07-18T07:45:15.565Z,29.36
2023-07-18T07:48:17.227Z,29.60
2023-07-18T07:51:19.431Z,29.40
2023-07-18T07:54:21.277Z,29.82
2023-07-18T07:57:23.673Z,29.87
2023-07-18T08:00:25.493Z,29.63
2023-07-18T08:03:27.154Z,29.58
2023-07-18T08:06:28.748Z,29.52
2023-07-18T08:09:30.532Z,29.52
2023-07-18T08:12:32.143Z,29.77
2023-07-18T08:15:33.770Z,29.80
2023-07-18T08:18:35.411Z,29.92
2023-07-18T08:21:37.005Z,30.12
2023-07-18T08:24:40.379Z,29.80
2023-07-18T08:27:42.016Z,30.44
2023-07-18T08:30:44.667Z,29.87
2023-07-18T08:33:46.840Z,30.42
2023-07-18T08:36:48.541Z,30.85
2023-07-18T08:39:50.194Z,30.80
2023-07-18T08:42:52.647Z,30.20
2023-07-18T08:45:55.303Z,30.02
2023-07-18T08:48:57.089Z,30.39
2023-07-18T08:51:58.938Z,30.73
2023-07-18T08:55:01.141Z,30.99
2023-07-18T08:58:03.471Z,31.29
2023-07-18T09:01:06.604Z,31.02
2023-07-18T09:04:08.276Z,30.62
2023-07-18T09:07:11.939Z,30.38
2023-07-18T09:10:21.975Z,30.46
2023-07-18T09:13:26.346Z,31.00
2023-07-18T09:16:27.982Z,31.66
2023-07-18T09:19:39.901Z,31.11
2023-07-18T09:22:42.587Z,30.77
2023-07-18T09:25:44.846Z,31.19
2023-07-18T09:28:47.254Z,30.60
2023-07-18T09:31:51.033Z,30.96
2023-07-18T09:34:53.965Z,31.34
2023-07-18T09:37:56.606Z,31.41
2023-07-18T09:40:58.384Z,32.09
2023-07-18T09:44:26.916Z,32.19
2023-07-18T09:47:24.013Z,32.99
2023-07-18T09:50:27.780Z,33.10
2023-07-18T09:53:31.329Z,33.03
2023-07-18T09:56:39.626Z,32.89
2023-07-18T09:59:41.544Z,32.95
2023-07-18T10:02:44.500Z,32.58
2023-07-18T10:05:46.818Z,32.73
2023-07-18T10:08:48.819Z,32.40
2023-07-18T10:11:59.614Z,33.26
2023-07-18T10:15:01.924Z,32.27
2023-07-18T10:18:19.681Z,32.33
2023-07-18T10:21:33.454Z,32.67
2023-07-18T10:24:35.225Z,32.75
2023-07-18T10:27:44.697Z,32.15
2023-07-18T10:30:47.593Z,32.89
2023-07-18T10:34:19.455Z,33.74
2023-07-18T10:37:27.340Z,34.45
2023-07-18T10:40:34.426Z,33.25
2023-07-18T10:43:48.044Z,33.55
2023-07-18T10:46:49.715Z,33.77
2023-07-18T10:49:51.373Z,34.62
2023-07-18T10:52:53.039Z,34.41
2023-07-18T10:55:57.480Z,34.47
2023-07-18T10:58:59.694Z,33.75
2023-07-18T11:02:01.937Z,34.19
2023-07-18T11:05:12.745Z,33.53
2023-07-18T11:08:26.531Z,33.39
2023-07-18T11:11:28.345Z,33.86
2023-07-18T11:14:42.318Z,34.57
2023-07-18T11:17:44.865Z,34.55
2023-07-18T11:20:46.635Z,35.60
2023-07-18T11:23:48.695Z,35.22
2023-07-18T11:27:19.139Z,33.91
2023-07-18T11:30:23.084Z,34.45
2023-07-18T11:33:37.163Z,35.67
2023-07-18T11:36:41.607Z,35.23
2023-07-18T11:39:47.871Z,35.76
2023-07-18T11:42:51.300Z,36.12
2023-07-18T11:45:57.117Z,34.86
2023-07-18T11:48:59.017Z,34.39
2023-07-18T11:52:03.398Z,35.07
2023-07-18T11:55:05.539Z,35.92
2023-07-18T11:58:09.296Z,36.38
2023-07-18T12:01:11.072Z,36.21
2023-07-18T12:04:16.213Z,36.17
2023-07-18T12:07:19.398Z,36.99
2023-07-18T12:10:24.764Z,37.08
2023-07-18T12:13:27.670Z,36.36
2023-07-18T12:16:29.793Z,36.61
2023-07-18T12:19:31.486Z,35.52
2023-07-18T12:22:33.520Z,36.29
2023-07-18T12:25:35.155Z,35.89
2023-07-18T12:28:36.800Z,36.56
2023-07-18T12:31:38.482Z,35.65
2023-07-18T12:34:41.242Z,36.35
2023-07-18T12:37:42.957Z,36.74
2023-07-18T12:40:44.723Z,36.08
2023-07-18T12:43:46.385Z,36.88
2023-07-18T12:46:48.547Z,36.91
2023-07-18T12:52:54.899Z,37.58
2023-07-18T12:55:56.912Z,38.51
2023-07-18T12:58:59.165Z,38.91
2023-07-18T13:02:01.430Z,38.97
2023-07-18T13:05:04.032Z,38.97
2023-07-18T13:08:06.473Z,39.18
2023-07-18T13:11:08.380Z,39.31
2023-07-18T13:14:10.212Z,38.57
2023-07-18T13:17:11.865Z,38.53
2023-07-18T13:20:13.565Z,37.54
2023-07-18T13:23:15.371Z,38.67
2023-07-18T13:26:20.378Z,38.60
2023-07-18T13:29:22.313Z,39.20
2023-07-18T13:32:24.007Z,39.05
2023-07-18T13:35:25.681Z,38.80
2023-07-18T13:38:27.349Z,36.43
2023-07-18T13:41:28.956Z,37.42
2023-07-18T13:44:30.604Z,37.68
2023-07-18T13:47:32.286Z,38.61
2023-07-18T13:50:34.006Z,38.13
2023-07-18T13:53:35.668Z,37.43
2023-07-18T13:56:37.375Z,38.12
2023-07-18T13:59:39.012Z,38.62
2023-07-18T14:02:40.833Z,39.39
2023-07-18T14:05:42.603Z,37.84
2023-07-18T14:08:44.941Z,36.28
2023-07-18T14:11:48.180Z,36.36
2023-07-18T14:14:49.855Z,35.88
2023-07-18T14:17:53.214Z,36.49
2023-07-18T14:20:54.995Z,38.08
2023-07-18T14:23:57.352Z,39.54
2023-07-18T14:26:58.988Z,39.78
2023-07-18T14:30:00.646Z,39.60
2023-07-18T14:33:05.272Z,40.01
2023-07-18T14:36:08.809Z,37.96
2023-07-18T14:39:10.472Z,38.19
2023-07-18T14:42:12.130Z,38.62
2023-07-18T14:45:13.853Z,38.71
2023-07-18T14:48:15.502Z,39.55
2023-07-18T14:51:17.246Z,37.93
2023-07-18T14:54:18.902Z,39.34
2023-07-18T14:57:20.979Z,40.25
2023-07-18T15:00:22.661Z,40.56
2023-07-18T15:03:24.430Z,39.54
2023-07-18T15:06:26.174Z,39.76
2023-07-18T15:09:27.809Z,39.58
2023-07-18T15:12:30.038Z,39.43
2023-07-18T15:15:32.157Z,39.44
2023-07-18T15:18:33.815Z,38.68
2023-07-18T15:21:35.782Z,40.06
2023-07-18T15:24:37.463Z,40.41
2023-07-18T15:27:40.871Z,39.52
2023-07-18T15:30:42.636Z,39.36
2023-07-18T15:33:44.445Z,40.00
2023-07-18T15:36:49.056Z,39.26
2023-07-18T15:39:50.722Z,38.95
2023-07-18T15:42:53.032Z,39.74
2023-07-18T15:45:55.942Z,39.91
2023-07-18T15:48:58.044Z,39.76
2023-07-18T15:51:59.668Z,39.77
2023-07-18T15:55:01.486Z,39.94
2023-07-18T15:58:03.122Z,39.51
2023-07-18T16:01:05.057Z,39.45
2023-07-18T16:04:07.777Z,39.47
2023-07-18T16:07:09.512Z,39.82
2023-07-18T16:10:11.392Z,38.72
2023-07-18T16:13:13.044Z,39.04
2023-07-18T16:16:15.595Z,39.41
2023-07-18T16:19:17.892Z,39.32
2023-07-18T16:22:19.702Z,38.04
2023-07-18T16:25:21.656Z,37.72
2023-07-18T16:28:23.377Z,38.02
2023-07-18T16:31:27.128Z,37.56
2023-07-18T16:34:28.925Z,36.41
2023-07-18T16:37:30.626Z,37.40
2023-07-18T16:40:32.283Z,37.27
2023-07-18T16:43:35.385Z,37.17
2023-07-18T16:46:37.173Z,35.80
2023-07-18T16:49:38.860Z,36.22
2023-07-18T16:52:41.356Z,34.93
2023-07-18T16:55:43.002Z,33.97
2023-07-18T16:58:45.030Z,33.16
2023-07-18T17:01:46.871Z,32.38
2023-07-18T17:04:48.570Z,31.76
2023-07-18T17:07:50.239Z,31.75
2023-07-18T17:10:51.935Z,30.75
2023-07-18T17:13:53.575Z,30.79
2023-07-18T17:16:55.315Z,30.48
2023-07-18T17:20:06.595Z,30.31
2023-07-18T17:23:10.288Z,30.01
2023-07-18T17:26:12.148Z,29.76
2023-07-18T17:29:13.769Z,29.57
2023-07-18T17:32:15.476Z,29.33
2023-07-18T17:35:17.520Z,29.02
2023-07-18T17:38:19.217Z,28.92
2023-07-18T17:41:21.290Z,28.74
2023-07-18T17:44:23.090Z,28.26
2023-07-18T17:47:24.797Z,28.11
2023-07-18T17:50:27.743Z,28.01
2023-07-18T17:53:29.409Z,27.94
2023-07-18T17:56:31.377Z,28.04
2023-07-18T17:59:33.829Z,27.98
2023-07-18T18:02:36.253Z,27.88
2023-07-18T18:05:48.108Z,27.93
2023-07-18T18:08:50.814Z,27.89
2023-07-18T18:11:54.035Z,27.68
2023-07-18T18:14:55.663Z,27.75
2023-07-18T18:17:57.379Z,27.56
2023-07-18T18:21:01.070Z,27.57
2023-07-18T18:24:02.680Z,27.52
2023-07-18T18:27:04.730Z,27.33
2023-07-18T18:30:07.022Z,27.23
2023-07-18T18:33:08.736Z,27.17
2023-07-18T18:36:10.589Z,27.09
2023-07-18T18:39:13.906Z,26.92
2023-07-18T18:42:15.568Z,26.77
2023-07-18T18:45:17.306Z,26.78
2023-07-18T18:48:19.651Z,26.69
2023-07-18T18:51:21.493Z,26.79
2023-07-18T18:54:23.689Z,26.71
2023-07-18T18:57:25.401Z,26.50
2023-07-18T19:00:27.272Z,26.32
2023-07-18T19:03:28.999Z,26.32
2023-07-18T19:06:30.706Z,26.43
2023-07-18T19:09:32.402Z,26.54
2023-07-18T19:12:34.062Z,26.48
2023-07-18T19:15:35.697Z,26.40
2023-07-18T19:18:37.618Z,26.25
2023-07-18T19:21:39.263Z,26.15
2023-07-18T19:24:42.050Z,26.18
2023-07-18T19:27:43.630Z,26.08
2023-07-18T19:30:45.268Z,26.04
2023-07-18T19:33:46.885Z,26.05
2023-07-18T19:36:48.686Z,25.93
2023-07-18T19:39:50.648Z,25.93
2023-07-18T19:42:52.460Z,25.96
2023-07-18T19:45:54.105Z,25.92
2023-07-18T19:48:55.742Z,25.87
2023-07-18T19:51:57.901Z,25.72
2023-07-18T19:54:59.601Z,25.73
2023-07-18T19:58:01.243Z,25.66
2023-07-18T20:01:02.937Z,25.57
2023-07-18T20:04:04.910Z,25.66
2023-07-18T20:07:06.587Z,25.57
2023-07-18T20:10:09.318Z,25.63
2023-07-18T20:13:10.939Z,25.62
2023-07-18T20:16:12.877Z,25.59
2023-07-18T20:19:15.117Z,25.62
2023-07-18T20:22:18.761Z,25.53
2023-07-18T20:25:20.344Z,25.51
2023-07-18T20:28:22.105Z,25.37
2023-07-18T20:31:24.191Z,25.34
2023-07-18T20:34:25.970Z,25.25
2023-07-18T20:37:27.697Z,25.26
2023-07-18T20:40:30.190Z,25.08
2023-07-18T20:43:32.048Z,25.15
2023-07-18T20:46:33.727Z,25.20
2023-07-18T20:49:35.581Z,25.17
2023-07-18T20:52:37.179Z,25.10
2023-07-18T20:55:38.841Z,25.06
2023-07-18T20:58:40.499Z,24.98
2023-07-18T21:01:42.158Z,25.01
2023-07-18T21:04:43.904Z,24.98
2023-07-18T21:07:45.532Z,24.98
2023-07-18T21:10:47.201Z,24.76
2023-07-18T21:13:48.868Z,24.75
2023-07-18T21:16:50.480Z,24.71
2023-07-18T21:19:52.156Z,24.62
2023-07-18T21:22:53.829Z,24.56
2023-07-18T21:25:55.515Z,24.60
2023-07-18T21:29:04.576Z,24.48
2023-07-18T21:32:07.595Z,24.37
2023-07-18T21:35:09.860Z,24.12
2023-07-18T21:38:11.682Z,24.03
2023-07-18T21:41:13.447Z,24.00
2023-07-18T21:44:15.587Z,23.88
2023-07-18T21:47:17.234Z,23.92
2023-07-18T21:50:18.896Z,23.71
2023-07-18T21:53:20.523Z,23.77
2023-07-18T21:56:22.159Z,23.63
2023-07-18T21:59:23.978Z,23.66
2023-07-18T22:02:33.189Z,23.67
2023-07-18T22:05:35.257Z,23.54
2023-07-18T22:08:36.845Z,23.49
2023-07-18T22:11:38.493Z,23.52
2023-07-18T22:14:40.182Z,23.62
2023-07-18T22:17:41.885Z,23.56
2023-07-18T22:20:43.747Z,23.58
2023-07-18T22:23:45.422Z,23.51
2023-07-18T22:26:47.035Z,23.48
2023-07-18T22:29:48.753Z,23.31
2023-07-18T22:32:50.432Z,23.26
2023-07-18T22:35:52.072Z,23.10
2023-07-18T22:38:53.667Z,22.97
2023-07-18T22:41:55.277Z,22.99
2023-07-18T22:44:56.933Z,22.92
2023-07-18T22:47:58.677Z,22.89
2023-07-18T22:51:00.366Z,22.80
2023-07-18T22:54:03.645Z,22.78
2023-07-18T22:57:06.743Z,22.73
2023-07-18T23:00:09.884Z,22.72
2023-07-18T23:03:12.705Z,22.57
2023-07-18T23:06:14.453Z,22.50
2023-07-18T23:09:16.320Z,22.49
2023-07-18T23:12:18.314Z,22.42
2023-07-18T23:15:20.261Z,22.35
2023-07-18T23:18:21.992Z,22.35
2023-07-18T23:21:24.214Z,22.41
2023-07-18T23:24:25.846Z,22.42
2023-07-18T23:27:27.436Z,22.38
2023-07-18T23:30:29.270Z,22.25
2023-07-18T23:33:30.941Z,22.17
2023-07-18T23:36:32.628Z,22.08
2023-07-18T23:39:34.610Z,22.01
2023-07-18T23:42:37.073Z,22.07
2023-07-18T23:45:39.387Z,22.03
2023-07-18T23:48:41.852Z,21.96
2023-07-18T23:51:43.507Z,21.87
2023-07-18T23:54:45.140Z,21.83
2023-07-18T23:57:46.829Z,21.84
